Cordell, OK

2:45 PM CDT on April 26, 2017 (GMT -0500)
Apache Trail | | Change Station

Elev 1923 ft 35.36 °N, 99.18 °W | Updated 1 minute ago

Overcast
Overcast
56.1 °F
Feels Like 56.1 °F
N
4.8
Wind Variable Wind from SE

Today
High -- | Low -- °F
--% Chance of Precip.
Yesterday
High -- | Low -- °F
Precip. -- in
Pressure 29.74 in
Visibility 10.0 miles
Clouds Mostly Cloudy 3700 ft
Overcast 9000 ft
Dew Point 45 °F
Humidity 65%
Rainfall 0.02 in
Snow Depth Not available.
6:49 AM 8:18 PM
New Moon, 0% visible
METAR KCSM 261853Z 34013G22KT 10SM BKN037 OVC090 12/03 A2976 RMK AO2 RAB1755E15 SLP069 P0000 T01220033
Pressure 29.74 in
Visibility 10.0 miles
Clouds Mostly Cloudy 3700 ft
Overcast 9000 ft
Dew Point 45 °F
Humidity 65%
Rainfall 0.02 in
Snow Depth Not available.
6:49 AM 8:18 PM
New Moon, 0% visible
METAR KCSM 261853Z 34013G22KT 10SM BKN037 OVC090 12/03 A2976 RMK AO2 RAB1755E15 SLP069 P0000 T01220033

Get Severe Weather Alerts

Thanks for signing up!

Be on the lookout for a verification email in your inbox.

You'll start receiving the daily forecast at 8 AM.

×

10-Day Weather Forecast

Almanac

Astronomy

Apr. 26, 2017 Rise Set
Actual Time
Civil Twilight
Nautical Twilight
Astronomical Twilight
Moon
Length of Visible Light
Length of Day
Tomorrow will be .
, % of the Moon is Illuminated

Today's Extremes

State Highs State Lows

Community

WunderPhotos

WunderBlog® & News

Nearby

Air Quality

  Air Quality AQ Index Pollutant
Not available.

Snow Depth

Station Depth Elevation

Earthquake Activity

City Distance Mag. Time & Date
Minimum magnitude displayed is 2.5.

Coastal Water Temperatures

Place Temperature

Stations

Nearby Weather Stations

Station Location Temp. Windchill Dew Point Humidity Wind Precip. Elev Updated Type
                   

Watches & Warnings

There are currently no watches in effect.